sensor_id;sensor_type;location;lat;lon;timestamp;pressure;altitude;pressure_sealevel;temperature;humidity
68793;BME280;55778;54.346;10.210;2023-05-12T00:00:35;101444.16;;;13.47;83.67
68793;BME280;55778;54.346;10.210;2023-05-12T00:03:01;101444.28;;;13.45;83.72
68793;BME280;55778;54.346;10.210;2023-05-12T00:05:27;101450.75;;;13.44;84.55
68793;BME280;55778;54.346;10.210;2023-05-12T00:07:53;101449.91;;;13.44;84.16
68793;BME280;55778;54.346;10.210;2023-05-12T00:10:19;101454.03;;;13.57;83.15
68793;BME280;55778;54.346;10.210;2023-05-12T00:12:45;101450.16;;;13.50;83.70
68793;BME280;55778;54.346;10.210;2023-05-12T00:15:11;101452.47;;;13.55;83.54
68793;BME280;55778;54.346;10.210;2023-05-12T00:17:37;101448.00;;;13.54;83.29
68793;BME280;55778;54.346;10.210;2023-05-12T00:20:03;101448.31;;;13.51;82.86
68793;BME280;55778;54.346;10.210;2023-05-12T00:22:30;101447.72;;;13.47;83.22
68793;BME280;55778;54.346;10.210;2023-05-12T00:24:55;101444.44;;;13.44;83.15
68793;BME280;55778;54.346;10.210;2023-05-12T00:27:21;101447.03;;;13.36;83.30
68793;BME280;55778;54.346;10.210;2023-05-12T00:29:46;101448.59;;;13.48;83.45
68793;BME280;55778;54.346;10.210;2023-05-12T00:32:11;101456.22;;;13.54;83.15
68793;BME280;55778;54.346;10.210;2023-05-12T00:34:37;101454.66;;;13.42;83.25
68793;BME280;55778;54.346;10.210;2023-05-12T00:37:02;101457.53;;;13.40;83.36
68793;BME280;55778;54.346;10.210;2023-05-12T00:39:28;101456.22;;;13.44;83.26
68793;BME280;55778;54.346;10.210;2023-05-12T00:41:57;101464.31;;;13.46;82.29
68793;BME280;55778;54.346;10.210;2023-05-12T00:44:23;101460.13;;;13.32;82.35
68793;BME280;55778;54.346;10.210;2023-05-12T00:46:49;101458.72;;;13.28;83.00
68793;BME280;55778;54.346;10.210;2023-05-12T00:49:15;101466.78;;;13.30;82.53
68793;BME280;55778;54.346;10.210;2023-05-12T00:51:41;101459.59;;;13.29;83.09
68793;BME280;55778;54.346;10.210;2023-05-12T00:54:07;101461.00;;;13.23;82.88
68793;BME280;55778;54.346;10.210;2023-05-12T00:56:33;101460.13;;;13.32;82.53
68793;BME280;55778;54.346;10.210;2023-05-12T00:59:06;101457.25;;;13.34;82.67
68793;BME280;55778;54.346;10.210;2023-05-12T01:01:32;101462.63;;;13.26;82.59
68793;BME280;55778;54.346;10.210;2023-05-12T01:03:59;101468.94;;;13.26;82.85
68793;BME280;55778;54.346;10.210;2023-05-12T01:06:36;101470.38;;;13.21;83.01
68793;BME280;55778;54.346;10.210;2023-05-12T01:09:03;101462.63;;;13.26;83.00
68793;BME280;55778;54.346;10.210;2023-05-12T01:11:28;101468.53;;;13.21;83.08
68793;BME280;55778;54.346;10.210;2023-05-12T01:13:54;101471.41;;;13.20;82.86
68793;BME280;55778;54.346;10.210;2023-05-12T01:16:22;101467.09;;;13.08;83.02
68793;BME280;55778;54.346;10.210;2023-05-12T01:18:50;101475.47;;;13.16;82.91
68793;BME280;55778;54.346;10.210;2023-05-12T01:21:18;101469.41;;;13.12;82.59
68793;BME280;55778;54.346;10.210;2023-05-12T01:23:48;101472.97;;;13.22;82.83
68793;BME280;55778;54.346;10.210;2023-05-12T01:26:16;101480.03;;;13.06;83.11
68793;BME280;55778;54.346;10.210;2023-05-12T01:28:42;101481.22;;;13.03;83.79
68793;BME280;55778;54.346;10.210;2023-05-12T01:31:08;101479.06;;;13.07;83.70
68793;BME280;55778;54.346;10.210;2023-05-12T01:33:34;101486.47;;;12.95;83.97
68793;BME280;55778;54.346;10.210;2023-05-12T01:36:00;101478.88;;;12.80;85.00
68793;BME280;55778;54.346;10.210;2023-05-12T01:38:25;101475.69;;;12.84;84.79
68793;BME280;55778;54.346;10.210;2023-05-12T01:40:51;101478.28;;;12.76;85.16
68793;BME280;55778;54.346;10.210;2023-05-12T01:43:16;101484.19;;;12.81;85.10
68793;BME280;55778;54.346;10.210;2023-05-12T01:45:42;101485.34;;;12.79;85.22
68793;BME280;55778;54.346;10.210;2023-05-12T01:48:07;101484.19;;;12.81;85.03
68793;BME280;55778;54.346;10.210;2023-05-12T01:50:32;101491.25;;;12.84;84.59
68793;BME280;55778;54.346;10.210;2023-05-12T01:52:58;101500.28;;;12.75;85.19
68793;BME280;55778;54.346;10.210;2023-05-12T01:55:23;101504.88;;;12.65;85.92
68793;BME280;55778;54.346;10.210;2023-05-12T01:57:49;101502.44;;;12.62;86.08
68793;BME280;55778;54.346;10.210;2023-05-12T02:00:14;101502.84;;;12.57;86.65
68793;BME280;55778;54.346;10.210;2023-05-12T02:02:40;101505.72;;;12.56;86.64
68793;BME280;55778;54.346;10.210;2023-05-12T02:05:07;101506.03;;;12.62;85.95
68793;BME280;55778;54.346;10.210;2023-05-12T02:07:32;101499.69;;;12.62;85.89
68793;BME280;55778;54.346;10.210;2023-05-12T02:09:58;101508.63;;;12.64;85.90
68793;BME280;55778;54.346;10.210;2023-05-12T02:12:23;101507.59;;;12.55;85.80
68793;BME280;55778;54.346;10.210;2023-05-12T02:14:48;101507.31;;;12.58;85.75
68793;BME280;55778;54.346;10.210;2023-05-12T02:17:14;101507.88;;;12.52;86.36
68793;BME280;55778;54.346;10.210;2023-05-12T02:19:41;101512.22;;;12.55;85.92
68793;BME280;55778;54.346;10.210;2023-05-12T02:22:06;101515.09;;;12.53;86.19
68793;BME280;55778;54.346;10.210;2023-05-12T02:24:31;101512.22;;;12.55;85.96
68793;BME280;55778;54.346;10.210;2023-05-12T02:26:57;101512.78;;;12.58;85.88
68793;BME280;55778;54.346;10.210;2023-05-12T02:29:22;101513.84;;;12.67;85.01
68793;BME280;55778;54.346;10.210;2023-05-12T02:31:47;101506.59;;;12.66;85.09
68793;BME280;55778;54.346;10.210;2023-05-12T02:34:13;101513.66;;;12.59;85.29
68793;BME280;55778;54.346;10.210;2023-05-12T02:36:38;101513.47;;;12.51;85.91
68793;BME280;55778;54.346;10.210;2023-05-12T02:39:04;101513.47;;;12.51;85.75
68793;BME280;55778;54.346;10.210;2023-05-12T02:41:29;101513.78;;;12.57;85.86
68793;BME280;55778;54.346;10.210;2023-05-12T02:43:55;101519.25;;;12.57;85.24
68793;BME280;55778;54.346;10.210;2023-05-12T02:46:20;101519.53;;;12.54;85.18
68793;BME280;55778;54.346;10.210;2023-05-12T02:48:45;101520.25;;;12.47;86.10
68793;BME280;55778;54.346;10.210;2023-05-12T02:51:11;101519.22;;;12.48;85.84
68793;BME280;55778;54.346;10.210;2023-05-12T02:53:36;101519.81;;;12.42;86.54
68793;BME280;55778;54.346;10.210;2023-05-12T02:56:02;101526.81;;;12.35;87.80
68793;BME280;55778;54.346;10.210;2023-05-12T02:58:27;101524.78;;;12.27;89.02
68793;BME280;55778;54.346;10.210;2023-05-12T03:00:52;101521.00;;;12.19;90.36
68793;BME280;55778;54.346;10.210;2023-05-12T03:03:18;101525.16;;;12.13;91.04
68793;BME280;55778;54.346;10.210;2023-05-12T03:05:43;101527.53;;;11.97;93.20
68793;BME280;55778;54.346;10.210;2023-05-12T03:08:09;101532.59;;;12.01;93.25
68793;BME280;55778;54.346;10.210;2023-05-12T03:10:34;101529.44;;;12.06;92.70
68793;BME280;55778;54.346;10.210;2023-05-12T03:13:00;101539.50;;;12.05;92.95
68793;BME280;55778;54.346;10.210;2023-05-12T03:15:25;101536.63;;;12.07;92.44
68793;BME280;55778;54.346;10.210;2023-05-12T03:17:50;101531.75;;;12.10;92.06
68793;BME280;55778;54.346;10.210;2023-05-12T03:20:16;101530.91;;;12.10;91.75
68793;BME280;55778;54.346;10.210;2023-05-12T03:22:41;101536.22;;;12.12;91.53
68793;BME280;55778;54.346;10.210;2023-05-12T03:25:08;101538.34;;;12.08;91.40
68793;BME280;55778;54.346;10.210;2023-05-12T03:27:34;101542.03;;;11.97;92.87
68793;BME280;55778;54.346;10.210;2023-05-12T03:30:00;101544.88;;;11.86;94.02
68793;BME280;55778;54.346;10.210;2023-05-12T03:32:26;101545.72;;;11.87;94.42
68793;BME280;55778;54.346;10.210;2023-05-12T03:34:53;101539.97;;;11.90;94.38
68793;BME280;55778;54.346;10.210;2023-05-12T03:37:18;101539.56;;;11.94;93.38
68793;BME280;55778;54.346;10.210;2023-05-12T03:39:43;101539.56;;;11.94;92.99
68793;BME280;55778;54.346;10.210;2023-05-12T03:42:09;101546.38;;;12.00;93.06
68793;BME280;55778;54.346;10.210;2023-05-12T03:44:34;101544.50;;;12.00;92.50
68793;BME280;55778;54.346;10.210;2023-05-12T03:47:00;101543.78;;;11.98;93.26
68793;BME280;55778;54.346;10.210;2023-05-12T03:49:25;101541.06;;;11.98;93.43
68793;BME280;55778;54.346;10.210;2023-05-12T03:51:50;101542.78;;;11.99;93.50
68793;BME280;55778;54.346;10.210;2023-05-12T03:54:16;101547.84;;;12.04;93.40
68793;BME280;55778;54.346;10.210;2023-05-12T03:56:41;101546.69;;;12.06;93.10
68793;BME280;55778;54.346;10.210;2023-05-12T03:59:06;101555.50;;;12.10;93.14
68793;BME280;55778;54.346;10.210;2023-05-12T04:01:32;101553.75;;;12.09;92.77
68793;BME280;55778;54.346;10.210;2023-05-12T04:03:57;101553.56;;;12.01;94.59
68793;BME280;55778;54.346;10.210;2023-05-12T04:06:22;101550.69;;;12.02;94.30
68793;BME280;55778;54.346;10.210;2023-05-12T04:08:48;101555.91;;;12.05;94.36
68793;BME280;55778;54.346;10.210;2023-05-12T04:11:13;101548.44;;;12.07;94.54
68793;BME280;55778;54.346;10.210;2023-05-12T04:13:39;101561.25;;;12.17;94.09
68793;BME280;55778;54.346;10.210;2023-05-12T04:16:04;101559.00;;;12.22;93.60
68793;BME280;55778;54.346;10.210;2023-05-12T04:18:29;101561.78;;;12.31;93.79
68793;BME280;55778;54.346;10.210;2023-05-12T04:20:55;101563.34;;;12.34;93.01
68793;BME280;55778;54.346;10.210;2023-05-12T04:23:21;101567.59;;;12.17;94.64
68793;BME280;55778;54.346;10.210;2023-05-12T04:25:47;101569.97;;;12.31;94.22
68793;BME280;55778;54.346;10.210;2023-05-12T04:28:12;101572.72;;;12.41;93.33
68793;BME280;55778;54.346;10.210;2023-05-12T04:30:39;101573.06;;;12.47;92.91
68793;BME280;55778;54.346;10.210;2023-05-12T04:33:04;101575.72;;;12.68;92.27
68793;BME280;55778;54.346;10.210;2023-05-12T04:35:30;101570.69;;;12.73;90.52
68793;BME280;55778;54.346;10.210;2023-05-12T04:37:55;101577.75;;;12.85;90.67
68793;BME280;55778;54.346;10.210;2023-05-12T04:40:21;101575.94;;;12.95;89.21
68793;BME280;55778;54.346;10.210;2023-05-12T04:42:46;101578.16;;;13.20;89.38
68793;BME280;55778;54.346;10.210;2023-05-12T04:45:12;101573.41;;;13.31;87.72
68793;BME280;55778;54.346;10.210;2023-05-12T04:47:37;101585.22;;;13.41;86.30
68793;BME280;55778;54.346;10.210;2023-05-12T04:50:03;101585.78;;;13.35;87.80
68793;BME280;55778;54.346;10.210;2023-05-12T04:52:30;101589.81;;;13.79;84.72
68793;BME280;55778;54.346;10.210;2023-05-12T04:54:55;101596.44;;;13.67;84.19
68793;BME280;55778;54.346;10.210;2023-05-12T04:57:21;101596.88;;;13.62;85.55
68793;BME280;55778;54.346;10.210;2023-05-12T04:59:46;101595.28;;;13.69;85.05
68793;BME280;55778;54.346;10.210;2023-05-12T05:02:12;101595.38;;;14.06;81.72
68793;BME280;55778;54.346;10.210;2023-05-12T05:04:37;101599.84;;;14.17;81.26
68793;BME280;55778;54.346;10.210;2023-05-12T05:07:03;101599.09;;;14.15;81.13
68793;BME280;55778;54.346;10.210;2023-05-12T05:09:29;101616.28;;;14.17;80.78
68793;BME280;55778;54.346;10.210;2023-05-12T05:11:54;101611.09;;;14.23;80.96
68793;BME280;55778;54.346;10.210;2023-05-12T05:14:20;101609.94;;;14.16;80.88
68793;BME280;55778;54.346;10.210;2023-05-12T05:16:46;101613.97;;;14.12;82.01
68793;BME280;55778;54.346;10.210;2023-05-12T05:19:13;101615.53;;;14.34;81.43
68793;BME280;55778;54.346;10.210;2023-05-12T05:21:38;101625.91;;;14.40;80.90
68793;BME280;55778;54.346;10.210;2023-05-12T05:24:04;101628.50;;;14.41;80.88
68793;BME280;55778;54.346;10.210;2023-05-12T05:26:29;101623.03;;;14.32;81.03
68793;BME280;55778;54.346;10.210;2023-05-12T05:28:55;101633.03;;;14.23;81.81
68793;BME280;55778;54.346;10.210;2023-05-12T05:31:21;101633.84;;;14.43;80.42
68793;BME280;55778;54.346;10.210;2023-05-12T05:33:46;101633.69;;;14.44;80.26
68793;BME280;55778;54.346;10.210;2023-05-12T05:36:12;101636.72;;;14.41;79.77
68793;BME280;55778;54.346;10.210;2023-05-12T05:38:38;101637.53;;;14.61;78.54
68793;BME280;55778;54.346;10.210;2023-05-12T05:41:03;101642.03;;;14.52;78.86
68793;BME280;55778;54.346;10.210;2023-05-12T05:43:29;101649.69;;;14.49;78.78
68793;BME280;55778;54.346;10.210;2023-05-12T05:45:55;101645.00;;;14.68;77.71
68793;BME280;55778;54.346;10.210;2023-05-12T05:48:23;101650.88;;;14.73;76.08
68793;BME280;55778;54.346;10.210;2023-05-12T05:50:49;101658.66;;;14.78;75.74
68793;BME280;55778;54.346;10.210;2023-05-12T05:53:15;101659.06;;;14.92;74.52
68793;BME280;55778;54.346;10.210;2023-05-12T05:55:42;101662.19;;;14.97;74.36
68793;BME280;55778;54.346;10.210;2023-05-12T05:58:08;101666.56;;;14.90;75.00
68793;BME280;55778;54.346;10.210;2023-05-12T06:00:33;101665.19;;;14.77;75.04
68793;BME280;55778;54.346;10.210;2023-05-12T06:02:59;101665.75;;;14.80;76.20
68793;BME280;55778;54.346;10.210;2023-05-12T06:05:24;101670.66;;;14.77;75.64
68793;BME280;55778;54.346;10.210;2023-05-12T06:07:49;101665.00;;;14.88;75.24
68793;BME280;55778;54.346;10.210;2023-05-12T06:10:15;101670.03;;;14.92;75.51
68793;BME280;55778;54.346;10.210;2023-05-12T06:12:40;101673.28;;;15.05;75.24
68793;BME280;55778;54.346;10.210;2023-05-12T06:15:07;101670.47;;;15.15;75.00
68793;BME280;55778;54.346;10.210;2023-05-12T06:17:33;101682.19;;;15.17;74.20
68793;BME280;55778;54.346;10.210;2023-05-12T06:19:58;101680.50;;;15.06;74.25
68793;BME280;55778;54.346;10.210;2023-05-12T06:22:23;101683.06;;;14.81;74.23
68793;BME280;55778;54.346;10.210;2023-05-12T06:24:49;101679.53;;;14.98;73.92
68793;BME280;55778;54.346;10.210;2023-05-12T06:27:14;101684.72;;;15.01;73.48
68793;BME280;55778;54.346;10.210;2023-05-12T06:29:40;101682.47;;;15.14;72.55
68793;BME280;55778;54.346;10.210;2023-05-12T06:32:05;101683.38;;;15.32;73.06
68793;BME280;55778;54.346;10.210;2023-05-12T06:34:31;101682.97;;;15.27;73.59
68793;BME280;55778;54.346;10.210;2023-05-12T06:36:56;101689.66;;;15.24;73.63
68793;BME280;55778;54.346;10.210;2023-05-12T06:39:22;101695.63;;;15.64;72.86
68793;BME280;55778;54.346;10.210;2023-05-12T06:41:47;101688.63;;;15.70;71.26
68793;BME280;55778;54.346;10.210;2023-05-12T06:44:13;101691.31;;;15.79;70.87
68793;BME280;55778;54.346;10.210;2023-05-12T06:46:38;101691.16;;;15.63;71.27
68793;BME280;55778;54.346;10.210;2023-05-12T06:49:04;101696.19;;;15.68;70.94
68793;BME280;55778;54.346;10.210;2023-05-12T06:51:30;101692.47;;;15.77;70.43
68793;BME280;55778;54.346;10.210;2023-05-12T06:53:55;101692.41;;;16.04;69.97
68793;BME280;55778;54.346;10.210;2023-05-12T06:56:21;101705.63;;;16.01;70.96
68793;BME280;55778;54.346;10.210;2023-05-12T06:58:48;101695.44;;;16.36;69.50
68793;BME280;55778;54.346;10.210;2023-05-12T07:01:14;101701.84;;;16.62;67.65
68793;BME280;55778;54.346;10.210;2023-05-12T07:03:40;101697.72;;;16.66;66.13
68793;BME280;55778;54.346;10.210;2023-05-12T07:06:05;101694.81;;;16.93;65.83
68793;BME280;55778;54.346;10.210;2023-05-12T07:08:31;101695.53;;;17.03;65.37
68793;BME280;55778;54.346;10.210;2023-05-12T07:10:58;101689.41;;;17.59;62.86
68793;BME280;55778;54.346;10.210;2023-05-12T07:13:24;101698.44;;;17.93;61.67
68793;BME280;55778;54.346;10.210;2023-05-12T07:15:49;101688.41;;;17.76;61.71
68793;BME280;55778;54.346;10.210;2023-05-12T07:18:15;101695.69;;;17.93;59.13
68793;BME280;55778;54.346;10.210;2023-05-12T07:20:40;101697.03;;;17.65;60.89
68793;BME280;55778;54.346;10.210;2023-05-12T07:23:06;101696.56;;;18.10;60.95
68793;BME280;55778;54.346;10.210;2023-05-12T07:25:31;101701.75;;;18.29;60.92
68793;BME280;55778;54.346;10.210;2023-05-12T07:27:57;101696.69;;;18.80;61.23
68793;BME280;55778;54.346;10.210;2023-05-12T07:30:22;101703.03;;;19.05;59.77
68793;BME280;55778;54.346;10.210;2023-05-12T07:32:47;101700.56;;;19.10;59.27
68793;BME280;55778;54.346;10.210;2023-05-12T07:35:13;101700.09;;;19.45;59.05
68793;BME280;55778;54.346;10.210;2023-05-12T07:37:38;101689.59;;;19.71;55.82
68793;BME280;55778;54.346;10.210;2023-05-12T07:40:06;101699.28;;;19.98;56.20
68793;BME280;55778;54.346;10.210;2023-05-12T07:42:31;101703.09;;;19.97;55.03
68793;BME280;55778;54.346;10.210;2023-05-12T07:44:57;101701.63;;;20.09;54.29
68793;BME280;55778;54.346;10.210;2023-05-12T07:47:22;101703.75;;;19.99;54.01
68793;BME280;55778;54.346;10.210;2023-05-12T07:49:48;101703.19;;;20.03;54.24
68793;BME280;55778;54.346;10.210;2023-05-12T07:52:13;101701.44;;;20.10;53.95
68793;BME280;55778;54.346;10.210;2023-05-12T07:54:38;101702.19;;;20.27;53.68
68793;BME280;55778;54.346;10.210;2023-05-12T07:57:04;101709.69;;;20.41;53.63
68793;BME280;55778;54.346;10.210;2023-05-12T07:59:29;101706.03;;;20.40;53.29
68793;BME280;55778;54.346;10.210;2023-05-12T08:01:55;101715.06;;;20.57;52.96
68793;BME280;55778;54.346;10.210;2023-05-12T08:04:20;101719.09;;;20.69;55.54
68793;BME280;55778;54.346;10.210;2023-05-12T08:06:46;101713.88;;;20.74;55.82
68793;BME280;55778;54.346;10.210;2023-05-12T08:09:11;101721.19;;;20.30;56.10
68793;BME280;55778;54.346;10.210;2023-05-12T08:11:38;101723.78;;;20.68;55.21
68793;BME280;55778;54.346;10.210;2023-05-12T08:14:03;101729.22;;;20.99;55.10
68793;BME280;55778;54.346;10.210;2023-05-12T08:16:29;101729.88;;;21.01;55.25
68793;BME280;55778;54.346;10.210;2023-05-12T08:18:54;101727.09;;;21.01;55.74
68793;BME280;55778;54.346;10.210;2023-05-12T08:21:20;101728.53;;;21.11;54.80
68793;BME280;55778;54.346;10.210;2023-05-12T08:23:45;101736.78;;;21.19;55.86
68793;BME280;55778;54.346;10.210;2023-05-12T08:26:10;101737.25;;;21.08;54.73
68793;BME280;55778;54.346;10.210;2023-05-12T08:28:36;101736.84;;;20.97;54.95
68793;BME280;55778;54.346;10.210;2023-05-12T08:31:02;101737.19;;;20.94;54.97
68793;BME280;55778;54.346;10.210;2023-05-12T08:33:27;101736.44;;;20.85;54.87
68793;BME280;55778;54.346;10.210;2023-05-12T08:35:53;101745.19;;;21.11;54.84
68793;BME280;55778;54.346;10.210;2023-05-12T08:38:18;101734.78;;;21.28;53.84
68793;BME280;55778;54.346;10.210;2023-05-12T08:43:51;101743.19;;;21.34;51.28
68793;BME280;55778;54.346;10.210;2023-05-12T08:46:17;101747.75;;;21.13;51.46
68793;BME280;55778;54.346;10.210;2023-05-12T08:48:45;101741.38;;;21.27;51.72
68793;BME280;55778;54.346;10.210;2023-05-12T08:51:12;101738.31;;;21.22;50.95
68793;BME280;55778;54.346;10.210;2023-05-12T08:53:40;101743.28;;;21.55;50.73
68793;BME280;55778;54.346;10.210;2023-05-12T08:56:07;101739.06;;;21.59;50.41
68793;BME280;55778;54.346;10.210;2023-05-12T08:58:34;101747.19;;;21.61;50.82
68793;BME280;55778;54.346;10.210;2023-05-12T09:01:02;101747.75;;;21.27;51.25
68793;BME280;55778;54.346;10.210;2023-05-12T09:03:29;101748.16;;;21.39;50.36
68793;BME280;55778;54.346;10.210;2023-05-12T09:05:56;101743.34;;;21.04;50.43
68793;BME280;55778;54.346;10.210;2023-05-12T09:08:23;101747.66;;;21.50;48.45
68793;BME280;55778;54.346;10.210;2023-05-12T09:10:49;101745.94;;;21.63;49.42
68793;BME280;55778;54.346;10.210;2023-05-12T09:13:22;101754.00;;;21.29;48.67
68793;BME280;55778;54.346;10.210;2023-05-12T09:15:51;101752.72;;;21.61;47.19
68793;BME280;55778;54.346;10.210;2023-05-12T09:18:20;101757.41;;;21.75;44.99
68793;BME280;55778;54.346;10.210;2023-05-12T09:20:46;101753.28;;;21.71;45.27
68793;BME280;55778;54.346;10.210;2023-05-12T09:23:17;101753.47;;;21.84;45.77
68793;BME280;55778;54.346;10.210;2023-05-12T09:25:43;101758.88;;;22.07;44.25
68793;BME280;55778;54.346;10.210;2023-05-12T09:28:11;101757.56;;;22.45;43.69
68793;BME280;55778;54.346;10.210;2023-05-12T09:30:36;101761.88;;;22.47;44.08
68793;BME280;55778;54.346;10.210;2023-05-12T09:33:10;101755.69;;;22.66;43.77
68793;BME280;55778;54.346;10.210;2023-05-12T09:35:39;101759.53;;;22.93;41.63
68793;BME280;55778;54.346;10.210;2023-05-12T09:38:09;101760.22;;;23.01;40.02
68793;BME280;55778;54.346;10.210;2023-05-12T09:40:35;101765.28;;;23.46;39.37
68793;BME280;55778;54.346;10.210;2023-05-12T09:43:04;101762.44;;;23.74;39.41
68793;BME280;55778;54.346;10.210;2023-05-12T09:45:35;101772.22;;;23.29;36.50
68793;BME280;55778;54.346;10.210;2023-05-12T09:48:10;101756.44;;;23.09;35.49
68793;BME280;55778;54.346;10.210;2023-05-12T09:50:56;101762.25;;;23.41;35.25
68793;BME280;55778;54.346;10.210;2023-05-12T09:53:21;101768.34;;;23.58;36.13
68793;BME280;55778;54.346;10.210;2023-05-12T09:55:47;101768.44;;;23.37;33.96
68793;BME280;55778;54.346;10.210;2023-05-12T09:58:18;101775.94;;;22.88;34.50
68793;BME280;55778;54.346;10.210;2023-05-12T10:00:44;101771.34;;;22.74;33.25
68793;BME280;55778;54.346;10.210;2023-05-12T10:03:12;101778.38;;;22.70;33.48
68793;BME280;55778;54.346;10.210;2023-05-12T10:05:47;101764.41;;;22.63;34.52
68793;BME280;55778;54.346;10.210;2023-05-12T10:08:19;101775.28;;;23.07;34.34
68793;BME280;55778;54.346;10.210;2023-05-12T10:10:46;101766.06;;;23.06;35.45
68793;BME280;55778;54.346;10.210;2023-05-12T10:13:13;101766.06;;;23.06;33.97
68793;BME280;55778;54.346;10.210;2023-05-12T10:15:39;101777.38;;;23.05;32.43
68793;BME280;55778;54.346;10.210;2023-05-12T10:18:06;101779.41;;;22.90;32.39
68793;BME280;55778;54.346;10.210;2023-05-12T10:20:33;101782.69;;;23.00;33.19
68793;BME280;55778;54.346;10.210;2023-05-12T10:22:59;101773.63;;;23.19;32.17
68793;BME280;55778;54.346;10.210;2023-05-12T10:25:27;101768.47;;;23.16;33.21
68793;BME280;55778;54.346;10.210;2023-05-12T10:27:54;101777.94;;;23.21;32.03
68793;BME280;55778;54.346;10.210;2023-05-12T10:30:20;101775.75;;;23.38;32.49
68793;BME280;55778;54.346;10.210;2023-05-12T10:32:46;101778.25;;;23.33;31.74
68793;BME280;55778;54.346;10.210;2023-05-12T10:35:12;101767.41;;;23.44;31.17
68793;BME280;55778;54.346;10.210;2023-05-12T10:37:38;101765.75;;;23.22;31.92
68793;BME280;55778;54.346;10.210;2023-05-12T10:40:06;101776.22;;;23.54;32.98
68793;BME280;55778;54.346;10.210;2023-05-12T10:42:41;101763.22;;;24.02;32.82
68793;BME280;55778;54.346;10.210;2023-05-12T10:45:15;101756.88;;;24.41;33.25
68793;BME280;55778;54.346;10.210;2023-05-12T10:47:44;101764.13;;;24.22;31.77
68793;BME280;55778;54.346;10.210;2023-05-12T10:50:10;101763.28;;;24.15;32.69
68793;BME280;55778;54.346;10.210;2023-05-12T10:52:55;101762.59;;;24.00;32.88
68793;BME280;55778;54.346;10.210;2023-05-12T10:55:34;101763.47;;;24.14;33.49
68793;BME280;55778;54.346;10.210;2023-05-12T10:58:05;101771.28;;;23.91;33.08
68793;BME280;55778;54.346;10.210;2023-05-12T11:00:31;101776.50;;;23.60;33.95
68793;BME280;55778;54.346;10.210;2023-05-12T11:03:10;101770.13;;;24.26;33.45
68793;BME280;55778;54.346;10.210;2023-05-12T11:05:36;101763.53;;;24.53;31.88
68793;BME280;55778;54.346;10.210;2023-05-12T11:08:01;101766.53;;;24.38;33.21
68793;BME280;55778;54.346;10.210;2023-05-12T11:10:29;101767.53;;;24.11;33.27
68793;BME280;55778;54.346;10.210;2023-05-12T11:12:55;101768.56;;;23.97;34.35
68793;BME280;55778;54.346;10.210;2023-05-12T11:15:21;101769.22;;;24.06;33.12
68793;BME280;55778;54.346;10.210;2023-05-12T11:17:46;101758.56;;;24.22;33.10
68793;BME280;55778;54.346;10.210;2023-05-12T11:20:21;101774.47;;;23.88;33.31
68793;BME280;55778;54.346;10.210;2023-05-12T11:22:47;101768.88;;;24.28;33.18
68793;BME280;55778;54.346;10.210;2023-05-12T11:25:13;101766.56;;;24.45;33.48
68793;BME280;55778;54.346;10.210;2023-05-12T11:27:38;101767.75;;;24.16;31.88
68793;BME280;55778;54.346;10.210;2023-05-12T11:30:09;101775.91;;;23.71;33.40
68793;BME280;55778;54.346;10.210;2023-05-12T11:32:35;101777.56;;;23.65;33.39
68793;BME280;55778;54.346;10.210;2023-05-12T11:35:12;101770.53;;;24.10;33.42
68793;BME280;55778;54.346;10.210;2023-05-12T11:37:38;101773.13;;;24.18;33.10
68793;BME280;55778;54.346;10.210;2023-05-12T11:40:21;101771.22;;;24.38;33.25
68793;BME280;55778;54.346;10.210;2023-05-12T11:42:48;101773.41;;;24.36;32.71
68793;BME280;55778;54.346;10.210;2023-05-12T11:45:26;101766.09;;;24.35;32.90
68793;BME280;55778;54.346;10.210;2023-05-12T11:48:04;101782.38;;;24.38;34.17
68793;BME280;55778;54.346;10.210;2023-05-12T11:50:30;101774.59;;;24.07;34.70
68793;BME280;55778;54.346;10.210;2023-05-12T11:52:55;101764.19;;;24.48;34.10
68793;BME280;55778;54.346;10.210;2023-05-12T11:55:22;101778.25;;;24.14;34.51
68793;BME280;55778;54.346;10.210;2023-05-12T11:58:00;101767.06;;;24.74;33.24
68793;BME280;55778;54.346;10.210;2023-05-12T12:00:30;101780.34;;;24.72;33.07
68793;BME280;55778;54.346;10.210;2023-05-12T12:03:11;101771.13;;;24.98;33.05
68793;BME280;55778;54.346;10.210;2023-05-12T12:05:37;101775.16;;;24.95;33.08
68793;BME280;55778;54.346;10.210;2023-05-12T12:08:04;101774.75;;;24.72;33.05
68793;BME280;55778;54.346;10.210;2023-05-12T12:10:30;101768.25;;;24.33;32.45
68793;BME280;55778;54.346;10.210;2023-05-12T12:12:56;101767.63;;;24.57;32.51
68793;BME280;55778;54.346;10.210;2023-05-12T12:15:21;101770.16;;;24.32;33.32
68793;BME280;55778;54.346;10.210;2023-05-12T12:17:47;101767.19;;;24.47;33.22
68793;BME280;55778;54.346;10.210;2023-05-12T12:20:12;101768.28;;;24.59;32.92
68793;BME280;55778;54.346;10.210;2023-05-12T12:22:37;101774.56;;;24.80;32.04
68793;BME280;55778;54.346;10.210;2023-05-12T12:25:03;101771.00;;;24.20;33.47
68793;BME280;55778;54.346;10.210;2023-05-12T12:27:28;101767.56;;;24.24;33.97
68793;BME280;55778;54.346;10.210;2023-05-12T12:29:54;101782.19;;;23.45;34.71
68793;BME280;55778;54.346;10.210;2023-05-12T12:32:19;101766.03;;;23.68;35.04
68793;BME280;55778;54.346;10.210;2023-05-12T12:34:45;101780.88;;;23.82;34.76
68793;BME280;55778;54.346;10.210;2023-05-12T12:37:10;101772.47;;;24.09;35.26
68793;BME280;55778;54.346;10.210;2023-05-12T12:39:36;101761.53;;;24.08;34.92